createdAt,value
2018-11-25T00:09:31.440Z,61.10
2018-11-25T00:12:08.594Z,61.00
2018-11-25T00:14:54.435Z,61.10
2018-11-25T00:20:04.712Z,61.10
2018-11-25T00:22:37.973Z,61.10
2018-11-25T00:27:59.861Z,60.90
2018-11-25T00:30:40.773Z,60.90
2018-11-25T00:33:24.160Z,61.00
2018-11-25T00:35:54.242Z,60.90
2018-11-25T00:38:25.660Z,60.90
2018-11-25T00:41:02.465Z,60.80
2018-11-25T00:46:17.231Z,60.90
2018-11-25T00:55:30.258Z,60.70
2018-11-25T00:58:06.713Z,60.60
2018-11-25T01:03:17.349Z,60.60
2018-11-25T01:05:47.581Z,60.50
2018-11-25T01:08:30.161Z,60.50
2018-11-25T01:11:03.931Z,60.60
2018-11-25T01:13:37.747Z,60.60
2018-11-25T01:16:13.732Z,60.50
2018-11-25T01:22:12.599Z,60.80
2018-11-25T01:27:25.624Z,60.60
2018-11-25T01:30:07.563Z,60.60
2018-11-25T01:35:23.578Z,60.60
2018-11-25T01:38:02.023Z,60.60
2018-11-25T01:40:36.072Z,60.70
2018-11-25T01:43:09.985Z,60.70
2018-11-25T01:45:39.602Z,60.70
2018-11-25T01:48:14.983Z,60.50
2018-11-25T01:50:49.781Z,60.40
2018-11-25T01:53:20.120Z,60.50
2018-11-25T01:55:59.562Z,60.50
2018-11-25T01:58:32.643Z,60.60
2018-11-25T02:01:11.152Z,60.60
2018-11-25T02:03:50.371Z,60.60
2018-11-25T02:06:28.855Z,60.60
2018-11-25T02:09:21.193Z,60.50
2018-11-25T02:11:55.748Z,60.50
2018-11-25T02:14:34.976Z,60.50
2018-11-25T02:19:58.199Z,60.40
2018-11-25T02:22:30.116Z,60.30
2018-11-25T02:27:46.356Z,60.30
2018-11-25T02:32:57.115Z,60.20
2018-11-25T02:35:34.581Z,60.10
2018-11-25T02:40:47.042Z,60.10
2018-11-25T02:43:18.535Z,60.00
2018-11-25T02:48:46.708Z,60.00
2018-11-25T02:51:18.647Z,60.00
2018-11-25T02:53:57.779Z,60.00
2018-11-25T02:56:27.936Z,60.00
2018-11-25T02:59:04.361Z,60.00
2018-11-25T03:01:39.950Z,60.10
2018-11-25T03:07:08.340Z,60.10
2018-11-25T03:12:24.063Z,60.10
2018-11-25T03:15:02.002Z,60.00
2018-11-25T03:17:39.230Z,60.20
2018-11-25T03:20:14.737Z,60.20
2018-11-25T03:22:46.298Z,60.30
2018-11-25T03:25:25.011Z,60.40
2018-11-25T03:27:58.807Z,60.40
2018-11-25T03:30:31.634Z,60.50
2018-11-25T03:33:02.641Z,60.60
2018-11-25T03:35:32.588Z,60.70
2018-11-25T03:38:04.768Z,60.80
2018-11-25T03:40:36.396Z,61.00
2018-11-25T03:45:47.351Z,61.20
2018-11-25T03:48:22.729Z,61.30
2018-11-25T03:50:54.671Z,61.60
2018-11-25T03:53:24.662Z,61.80
2018-11-25T03:56:01.408Z,62.40
2018-11-25T03:58:32.728Z,61.90
2018-11-25T04:01:09.756Z,61.90
2018-11-25T04:03:48.265Z,62.00
2018-11-25T04:06:25.716Z,62.30
2018-11-25T04:09:01.497Z,63.00
2018-11-25T04:14:21.899Z,62.40
2018-11-25T04:16:54.797Z,62.40
2018-11-25T04:19:27.190Z,62.50
2018-11-25T04:21:58.990Z,62.60
2018-11-25T04:24:34.195Z,62.60
2018-11-25T04:27:05.544Z,62.60
2018-11-25T04:30:00.298Z,62.60
2018-11-25T04:32:32.491Z,62.70
2018-11-25T04:35:10.719Z,62.70
2018-11-25T04:37:50.527Z,62.70
2018-11-25T04:40:19.747Z,62.70
2018-11-25T04:45:33.880Z,62.70
2018-11-25T04:48:09.635Z,62.60
2018-11-25T04:50:41.029Z,62.80
2018-11-25T04:55:54.799Z,62.80
2018-11-25T04:58:40.040Z,62.90
2018-11-25T05:01:09.821Z,63.00
2018-11-25T05:03:43.582Z,62.90
2018-11-25T05:06:13.184Z,62.80
2018-11-25T05:12:04.986Z,62.80
2018-11-25T05:14:34.177Z,62.70
2018-11-25T05:17:05.693Z,62.70
2018-11-25T05:19:40.310Z,62.70
2018-11-25T05:22:11.007Z,62.70
2018-11-25T05:24:40.523Z,62.80
2018-11-25T05:27:10.820Z,62.70
2018-11-25T05:29:40.421Z,62.90
2018-11-25T05:32:10.734Z,62.90
2018-11-25T05:34:42.310Z,62.80
2018-11-25T05:39:51.841Z,63.00
2018-11-25T05:42:22.843Z,63.60
2018-11-25T05:44:53.259Z,63.10
2018-11-25T05:47:25.680Z,63.20
2018-11-25T05:53:23.643Z,63.40
2018-11-25T05:55:59.653Z,63.20
2018-11-25T05:58:32.521Z,63.20
2018-11-25T06:01:06.127Z,63.10
2018-11-25T06:03:40.323Z,63.30
2018-11-25T06:06:13.620Z,63.40
2018-11-25T06:08:55.102Z,63.90
2018-11-25T06:11:35.841Z,63.60
2018-11-25T06:14:12.514Z,63.50
2018-11-25T06:16:47.047Z,63.60
2018-11-25T06:19:19.564Z,63.70
2018-11-25T06:21:52.800Z,63.60
2018-11-25T06:24:28.133Z,63.50
2018-11-25T06:27:04.771Z,63.50
2018-11-25T06:29:54.331Z,63.50
2018-11-25T06:35:08.518Z,63.40
2018-11-25T06:37:40.316Z,63.40
2018-11-25T06:40:21.657Z,63.30
2018-11-25T06:42:54.139Z,63.10
2018-11-25T06:45:33.185Z,63.10
2018-11-25T06:50:51.756Z,62.90
2018-11-25T06:58:59.673Z,62.90
2018-11-25T07:01:32.685Z,63.00
2018-11-25T07:04:04.398Z,62.70
2018-11-25T07:06:35.860Z,62.80
2018-11-25T07:09:10.005Z,62.70
2018-11-25T07:11:47.855Z,62.70
2018-11-25T07:14:27.126Z,62.70
2018-11-25T07:16:58.226Z,62.70
2018-11-25T07:19:35.156Z,62.90
2018-11-25T07:22:07.383Z,63.00
2018-11-25T07:27:19.903Z,62.70
2018-11-25T07:30:07.732Z,62.60
2018-11-25T07:32:39.949Z,62.60
2018-11-25T07:35:10.850Z,62.60
2018-11-25T07:40:19.103Z,62.50
2018-11-25T07:42:51.135Z,62.50
2018-11-25T07:45:30.567Z,62.40
2018-11-25T07:48:06.058Z,62.40
2018-11-25T07:50:42.214Z,62.20
2018-11-25T07:55:59.304Z,62.10
2018-11-25T07:59:07.092Z,62.10
2018-11-25T08:01:42.491Z,62.00
2018-11-25T08:09:42.671Z,61.80
2018-11-25T08:15:02.968Z,61.80
2018-11-25T08:20:17.714Z,61.80
2018-11-25T08:25:35.342Z,61.60
2018-11-25T08:36:13.298Z,61.20
2018-11-25T08:38:59.357Z,61.20
2018-11-25T08:41:31.691Z,61.10
2018-11-25T08:44:03.689Z,61.00
2018-11-25T08:46:35.691Z,60.60
2018-11-25T08:49:36.020Z,60.70
2018-11-25T08:52:10.778Z,60.70
2018-11-25T08:54:43.403Z,60.60
2018-11-25T08:57:16.851Z,60.50
2018-11-25T09:00:21.950Z,60.50
2018-11-25T09:02:54.926Z,60.40
2018-11-25T09:05:30.289Z,60.40
2018-11-25T09:10:51.393Z,60.40
2018-11-25T09:18:56.240Z,60.20
2018-11-25T09:21:31.077Z,60.20
2018-11-25T09:26:43.423Z,60.00
2018-11-25T09:40:29.079Z,59.80
2018-11-25T09:48:43.883Z,59.70
2018-11-25T09:51:25.065Z,59.70
2018-11-25T09:53:55.554Z,59.50
2018-11-25T09:56:29.114Z,59.60
2018-11-25T09:59:22.435Z,59.60
2018-11-25T10:07:19.577Z,59.00
2018-11-25T10:09:59.569Z,58.90
2018-11-25T10:12:43.874Z,58.80
2018-11-25T10:20:44.242Z,58.50
2018-11-25T10:23:21.652Z,58.70
2018-11-25T10:25:58.905Z,58.60
2018-11-25T10:31:24.246Z,58.40
2018-11-25T10:34:03.237Z,58.30
2018-11-25T10:36:39.587Z,58.30
2018-11-25T10:39:14.549Z,58.30
2018-11-25T10:44:33.957Z,58.30
2018-11-25T10:50:07.717Z,58.10
2018-11-25T11:05:41.553Z,58.00
2018-11-25T12:01:55.783Z,57.10
2018-11-25T12:07:06.446Z,57.30
2018-11-25T12:15:16.493Z,57.30
2018-11-25T12:17:49.668Z,57.40
2018-11-25T12:23:13.111Z,57.20
2018-11-25T12:25:44.032Z,57.70
2018-11-25T12:30:48.813Z,57.10
2018-11-25T12:33:21.800Z,57.00
2018-11-25T12:35:53.734Z,56.80
2018-11-25T12:54:38.913Z,56.50
2018-11-25T12:57:21.452Z,56.70
2018-11-25T13:00:24.645Z,56.70
2018-11-25T13:02:56.045Z,56.90
2018-11-25T13:05:34.862Z,56.70
2018-11-25T13:11:34.158Z,56.40
2018-11-25T13:16:57.585Z,56.30
2018-11-25T13:20:09.714Z,56.30
2018-11-25T13:25:46.027Z,56.00
2018-11-25T13:28:16.029Z,56.80
2018-11-25T13:30:52.816Z,56.20
2018-11-25T13:33:24.524Z,56.40
2018-11-25T13:35:57.020Z,56.40
2018-11-25T13:38:32.803Z,56.40
2018-11-25T13:41:04.432Z,56.30
2018-11-25T13:43:41.399Z,56.60
2018-11-25T13:46:10.855Z,56.60
2018-11-25T13:48:44.979Z,56.80
2018-11-25T13:51:15.777Z,56.90
2018-11-25T13:53:49.573Z,56.70
2018-11-25T13:56:22.135Z,56.90
2018-11-25T13:58:52.595Z,56.90
2018-11-25T14:01:26.888Z,56.90
2018-11-25T14:04:00.827Z,57.00
2018-11-25T14:06:32.184Z,57.00
2018-11-25T14:09:17.259Z,56.90
2018-11-25T14:11:49.000Z,57.10
2018-11-25T14:14:28.631Z,56.70
2018-11-25T14:16:57.510Z,56.50
2018-11-25T14:19:29.823Z,56.20
2018-11-25T14:22:06.335Z,55.80
2018-11-25T14:27:19.125Z,55.40
2018-11-25T14:29:51.649Z,55.10
2018-11-25T14:37:56.722Z,55.20
2018-11-25T14:40:32.798Z,55.20
2018-11-25T14:43:03.567Z,55.10
2018-11-25T14:45:42.397Z,55.10
2018-11-25T14:48:16.764Z,55.20
2018-11-25T14:50:52.528Z,55.30
2018-11-25T14:53:34.699Z,55.40
2018-11-25T14:56:05.885Z,55.40
2018-11-25T14:58:40.112Z,55.50
2018-11-25T15:01:10.857Z,55.60
2018-11-25T15:03:45.220Z,55.70
2018-11-25T15:06:18.679Z,56.00
2018-11-25T15:11:33.895Z,56.20
2018-11-25T16:26:35.698Z,59.00
2018-11-25T16:29:24.383Z,59.20
2018-11-25T16:34:49.478Z,59.40
2018-11-25T16:37:27.648Z,59.30
2018-11-25T16:40:31.017Z,59.30
2018-11-25T16:43:12.474Z,59.70
2018-11-25T16:54:53.887Z,59.80
2018-11-25T16:58:02.529Z,60.00
2018-11-25T17:36:44.446Z,61.10
2018-11-25T17:40:02.023Z,61.20
2018-11-25T17:43:00.082Z,61.20
2018-11-25T17:45:57.046Z,61.40
2018-11-25T17:48:43.549Z,61.50
2018-11-25T17:51:23.749Z,61.50
2018-11-25T17:54:01.873Z,61.60
2018-11-25T18:02:26.262Z,61.90
2018-11-25T19:07:17.281Z,62.80
2018-11-25T19:24:11.486Z,62.90
2018-11-25T19:26:56.117Z,62.90
2018-11-25T19:29:34.381Z,63.00
2018-11-25T19:32:12.991Z,62.80
2018-11-25T19:40:45.390Z,62.70
2018-11-25T19:48:59.837Z,62.40
2018-11-25T19:54:32.173Z,62.60
2018-11-25T19:57:18.278Z,62.40
2018-11-25T20:03:01.102Z,62.30
2018-11-25T20:11:19.206Z,62.10
2018-11-25T20:16:30.332Z,62.20
2018-11-25T20:19:16.892Z,62.20
2018-11-25T20:21:53.055Z,62.30
2018-11-25T20:24:32.310Z,62.30
2018-11-25T20:27:19.148Z,62.20
2018-11-25T20:32:42.058Z,62.20
2018-11-25T20:35:26.896Z,62.20
2018-11-25T20:40:16.314Z,62.20
2018-11-25T20:48:26.962Z,62.00
2018-11-25T20:51:15.894Z,62.00
2018-11-25T20:56:45.166Z,62.10
2018-11-25T21:07:30.775Z,62.10
2018-11-25T21:13:27.438Z,62.20
2018-11-25T21:16:06.525Z,62.20
2018-11-25T21:18:50.076Z,62.20
2018-11-25T21:21:25.209Z,62.00
2018-11-25T21:24:07.390Z,62.10
2018-11-25T21:26:47.393Z,62.00
2018-11-25T21:29:40.760Z,62.00
2018-11-25T21:32:18.532Z,62.00
2018-11-25T21:37:39.142Z,61.80
2018-11-25T21:46:25.625Z,61.90
2018-11-25T21:49:18.179Z,61.70
2018-11-25T21:51:56.544Z,61.80
2018-11-25T21:54:27.727Z,61.70
2018-11-25T21:57:05.238Z,61.70
2018-11-25T21:59:41.728Z,61.80
2018-11-25T22:05:02.030Z,61.80
2018-11-25T22:07:35.613Z,61.80
2018-11-25T22:10:11.384Z,61.70
2018-11-25T22:21:14.530Z,61.50
2018-11-25T22:29:33.876Z,61.60
2018-11-25T22:32:21.295Z,61.50
2018-11-25T22:34:52.343Z,61.60
2018-11-25T22:37:22.371Z,61.40
2018-11-25T22:40:18.528Z,61.60
2018-11-25T22:45:29.240Z,61.50
2018-11-25T22:48:06.653Z,61.50
2018-11-25T22:50:41.432Z,61.60
2018-11-25T22:53:27.051Z,61.40
2018-11-25T22:56:09.502Z,61.50
2018-11-25T22:58:53.977Z,61.60
2018-11-25T23:01:24.181Z,62.10
2018-11-25T23:07:10.577Z,61.50
2018-11-25T23:13:15.794Z,61.60
2018-11-25T23:15:55.460Z,61.60
2018-11-25T23:21:58.565Z,61.50
2018-11-25T23:30:19.636Z,61.50
2018-11-25T23:32:54.136Z,61.40
2018-11-25T23:35:31.298Z,61.40
2018-11-25T23:38:09.343Z,61.50
2018-11-25T23:41:08.855Z,61.50
2018-11-25T23:43:40.573Z,61.40
2018-11-25T23:46:12.922Z,61.40
2018-11-25T23:48:46.619Z,61.40
2018-11-25T23:51:22.983Z,61.30
2018-11-25T23:54:02.621Z,61.20
2018-11-25T23:56:36.739Z,61.20
